Time;durP1;ratioP1;P1;durP2;ratioP2;P2;SDS_P1;SDS_P2;PMS_P1;PMS_P2;Temp;Humidity;BMP_temperature;BMP_pressure;BME280_temperature;BME280_humidity;BME280_pressure;Samples;Min_cycle;Max_cycle;Signal;HPM_P1;HPM_P2
2021/08/15 00:01:34;;;;;;;8.23;3.70;;;;;;;21.14;57.52;100557.56;4899314;29;20072;-81
2021/08/15 00:04:01;;;;;;;7.80;3.60;;;;;;;21.12;57.22;100559.53;4910807;29;20110;-82
2021/08/15 00:06:28;;;;;;;9.05;4.07;;;;;;;21.09;57.19;100559.84;4917030;29;20789;-81
2021/08/15 00:08:54;;;;;;;8.43;3.80;;;;;;;21.06;57.49;100554.72;4917294;29;20052;-81
2021/08/15 00:11:21;;;;;;;7.18;3.85;;;;;;;21.05;57.31;100558.41;4916540;29;20066;-81
2021/08/15 00:13:48;;;;;;;8.52;3.45;;;;;;;21.04;57.69;100553.16;4915723;29;20052;-81
2021/08/15 00:16:15;;;;;;;9.02;3.78;;;;;;;21.04;57.23;100561.22;4916147;29;20076;-82
2021/08/15 00:18:42;;;;;;;10.18;3.65;;;;;;;20.98;57.17;100543.75;4911169;29;20103;-81
2021/08/15 00:21:11;;;;;;;7.03;3.70;;;;;;;20.97;57.63;100560.91;4911564;29;20503;-81
2021/08/15 00:23:37;;;;;;;10.55;4.07;;;;;;;20.95;57.39;100557.47;4915364;29;20143;-81
2021/08/15 00:26:04;;;;;;;7.20;4.20;;;;;;;20.91;57.69;100556.06;4921913;29;20099;-81
2021/08/15 00:28:31;;;;;;;8.88;3.85;;;;;;;20.80;57.98;100550.75;4907464;29;20068;-81
2021/08/15 00:30:58;;;;;;;7.47;4.35;;;;;;;20.75;58.79;100544.94;4923459;29;20158;-81
2021/08/15 00:33:27;;;;;;;8.35;3.80;;;;;;;20.71;59.10;100548.88;4917400;29;20135;-81
2021/08/15 00:35:53;;;;;;;7.88;4.18;;;;;;;20.67;59.50;100543.75;4924945;29;20048;-81
2021/08/15 00:38:20;;;;;;;8.88;4.32;;;;;;;20.57;59.57;100542.00;4915870;29;20086;-81
2021/08/15 00:40:48;;;;;;;8.52;4.13;;;;;;;20.50;60.08;100549.72;4914903;29;20437;-81
2021/08/15 00:43:17;;;;;;;;;;;;;;;20.44;60.09;100552.13;4917460;29;20052;-81
2021/08/15 00:45:44;;;;;;;6.38;4.05;;;;;;;20.41;60.59;100552.38;4923215;29;19927;-81
2021/08/15 00:48:12;;;;;;;9.25;4.30;;;;;;;20.38;60.68;100552.63;4918320;29;20054;-81
2021/08/15 00:50:39;;;;;;;8.25;4.32;;;;;;;20.31;60.66;100546.88;4918344;29;20053;-81
2021/08/15 00:53:06;;;;;;;8.63;3.85;;;;;;;20.24;61.20;100548.38;4913996;29;20070;-81
2021/08/15 00:55:33;;;;;;;7.90;4.22;;;;;;;20.20;61.26;100546.94;4921206;29;20133;-81
2021/08/15 00:58:02;;;;;;;7.18;4.13;;;;;;;20.15;61.03;100544.63;4917499;29;20048;-81
2021/08/15 01:00:29;;;;;;;6.95;4.00;;;;;;;20.14;61.09;100548.31;4920626;29;20066;-81
2021/08/15 01:02:59;;;;;;;7.25;3.97;;;;;;;20.13;61.78;100549.31;4909561;29;20575;-81
2021/08/15 01:05:27;;;;;;;8.20;4.25;;;;;;;20.11;61.76;100545.88;4932534;29;21089;-81
2021/08/15 01:07:54;;;;;;;9.13;3.95;;;;;;;20.01;61.93;100536.00;4929274;29;20056;-81
2021/08/15 01:10:22;;;;;;;8.68;4.15;;;;;;;19.96;62.55;100531.91;4934674;29;20060;-81
2021/08/15 01:12:50;;;;;;;7.07;4.18;;;;;;;19.91;62.71;100544.00;4920453;29;20387;-81
2021/08/15 01:15:17;;;;;;;9.88;4.53;;;;;;;19.86;62.72;100539.00;4914558;29;20052;-81
2021/08/15 01:17:44;;;;;;;8.25;4.70;;;;;;;19.84;62.98;100530.22;4916574;29;20052;-81
2021/08/15 01:20:11;;;;;;;8.20;4.00;;;;;;;19.80;63.25;100528.78;4914997;29;20054;-81
2021/08/15 01:22:40;;;;;;;6.93;4.32;;;;;;;19.74;63.43;100523.91;4917471;29;20792;-81
2021/08/15 01:25:08;;;;;;;9.43;4.20;;;;;;;19.75;63.56;100522.94;4912896;29;20448;-81
2021/08/15 01:27:38;;;;;;;8.63;4.15;;;;;;;19.78;63.87;100516.47;4922058;29;20052;-81
2021/08/15 01:30:07;;;;;;;8.45;4.75;;;;;;;19.82;64.13;100517.91;4919942;29;20072;-81
2021/08/15 01:32:35;;;;;;;6.93;4.20;;;;;;;19.83;64.13;100525.81;4921809;29;20084;-81
2021/08/15 01:35:03;;;;;;;7.93;4.50;;;;;;;19.83;63.78;100530.38;4917564;29;20060;-81
2021/08/15 01:37:29;;;;;;;9.30;4.72;;;;;;;19.76;64.07;100535.41;4916457;29;20701;-81
2021/08/15 01:40:01;;;;;;;8.55;4.72;;;;;;;19.68;64.52;100526.25;4914428;29;20051;-81
2021/08/15 01:42:33;;;;;;;6.68;4.05;;;;;;;19.63;65.28;100529.34;4930927;29;20047;-80
2021/08/15 01:44:59;;;;;;;9.25;4.63;;;;;;;19.54;65.54;100524.69;4929179;29;20044;-80
2021/08/15 01:47:27;;;;;;;7.18;4.32;;;;;;;19.40;66.01;100522.25;4929729;29;20060;-80
2021/08/15 01:49:55;;;;;;;8.70;4.20;;;;;;;19.37;66.41;100512.63;4933966;29;20063;-80
2021/08/15 01:52:22;;;;;;;13.18;4.60;;;;;;;19.42;66.58;100523.00;4941058;29;20697;-81
2021/08/15 01:54:48;;;;;;;7.22;4.03;;;;;;;19.43;66.15;100516.66;4921257;29;20079;-81
2021/08/15 01:57:15;;;;;;;6.78;3.80;;;;;;;19.43;65.89;100519.34;4924368;29;20051;-81
2021/08/15 01:59:42;;;;;;;6.88;4.50;;;;;;;19.43;66.17;100516.66;4924433;29;20067;-81
2021/08/15 02:02:08;;;;;;;8.18;4.75;;;;;;;19.45;66.10;100515.53;4927006;29;20111;-81
2021/08/15 02:04:35;;;;;;;8.52;4.72;;;;;;;19.46;66.13;100516.41;4930502;29;20056;-80
2021/08/15 02:07:03;;;;;;;7.60;4.53;;;;;;;19.47;66.39;100518.09;4930431;29;20087;-81
2021/08/15 02:09:30;;;;;;;7.95;4.43;;;;;;;19.42;66.90;100514.94;4936122;29;20052;-80
2021/08/15 02:11:56;;;;;;;7.93;4.22;;;;;;;19.39;66.82;100513.34;4929635;29;20100;-81
2021/08/15 02:14:23;;;;;;;11.82;5.28;;;;;;;19.38;67.05;100518.84;4926895;29;20074;-80
2021/08/15 02:16:50;;;;;;;9.55;5.10;;;;;;;19.37;67.22;100520.66;4926494;29;20052;-80
2021/08/15 02:19:16;;;;;;;6.38;4.50;;;;;;;19.32;66.88;100514.00;4931067;29;20143;-80
2021/08/15 02:21:43;;;;;;;10.55;4.82;;;;;;;19.20;66.96;100515.84;4926198;29;20499;-80
2021/08/15 02:24:10;;;;;;;9.50;4.72;;;;;;;19.13;67.25;100514.63;4917799;29;20488;-81
2021/08/15 02:26:36;;;;;;;6.63;4.47;;;;;;;19.07;67.71;100513.28;4916695;29;20058;-81
2021/08/15 02:29:03;;;;;;;9.32;4.45;;;;;;;19.05;67.81;100506.31;4922404;29;20044;-81
2021/08/15 02:31:29;;;;;;;9.05;4.50;;;;;;;19.01;67.87;100505.75;4927622;29;20075;-81
2021/08/15 02:33:56;;;;;;;10.38;4.70;;;;;;;18.90;68.47;100503.03;4918141;29;20096;-81
2021/08/15 02:36:23;;;;;;;9.45;4.65;;;;;;;18.88;68.63;100511.22;4917226;29;20058;-81
2021/08/15 02:38:49;;;;;;;7.55;4.90;;;;;;;18.87;69.01;100503.31;4924740;29;20056;-81
2021/08/15 02:41:16;;;;;;;7.18;4.68;;;;;;;18.85;68.82;100499.88;4919693;29;20051;-81
2021/08/15 02:43:43;;;;;;;17.70;5.47;;;;;;;18.82;69.11;100497.44;4916900;29;20048;-81
2021/08/15 02:46:10;;;;;;;11.15;5.43;;;;;;;18.79;69.14;100505.72;4917958;29;20075;-81
2021/08/15 02:48:38;;;;;;;8.10;4.47;;;;;;;18.80;69.32;100496.72;4913527;29;20048;-81
2021/08/15 02:51:08;;;;;;;7.18;4.63;;;;;;;18.78;69.22;100504.88;4906534;29;20116;-81
2021/08/15 02:53:35;;;;;;;9.27;5.10;;;;;;;18.76;69.15;100501.44;4918803;29;20127;-81
2021/08/15 02:56:01;;;;;;;8.65;4.88;;;;;;;18.70;69.20;100503.78;4941194;29;20116;-82
2021/08/15 02:58:28;;;;;;;8.55;4.47;;;;;;;18.57;69.95;100502.00;4942209;29;20116;-81
2021/08/15 03:00:56;;;;;;;9.13;4.50;;;;;;;18.51;70.16;100497.16;4916312;29;20056;-82
2021/08/15 03:03:22;;;;;;;10.10;4.55;;;;;;;18.42;70.52;100505.91;4919026;29;20056;-82
2021/08/15 03:05:50;;;;;;;8.63;5.05;;;;;;;18.39;71.37;100502.63;4922248;29;20217;-82
2021/08/15 03:08:17;;;;;;;10.52;5.13;;;;;;;18.32;71.34;100506.75;4935689;29;20036;-82
2021/08/15 03:10:44;;;;;;;8.60;4.70;;;;;;;18.19;71.65;100502.31;4924810;29;20079;-81
2021/08/15 03:13:10;;;;;;;8.30;5.00;;;;;;;18.10;72.07;100502.19;4943553;29;20123;-82
2021/08/15 03:15:38;;;;;;;10.95;5.18;;;;;;;18.03;72.47;100495.56;4928102;29;20415;-82
2021/08/15 03:18:05;;;;;;;7.10;4.90;;;;;;;17.98;72.75;100498.59;4921617;29;20064;-82
2021/08/15 03:20:33;;;;;;;9.73;4.90;;;;;;;17.96;72.94;100492.50;4925292;29;20051;-82
2021/08/15 03:23:01;;;;;;;9.32;5.22;;;;;;;18.03;72.60;100496.44;4919347;29;20150;-82
2021/08/15 03:25:28;;;;;;;9.10;4.82;;;;;;;18.06;72.50;100501.56;4921691;29;20040;-82
2021/08/15 03:27:55;;;;;;;7.25;4.53;;;;;;;18.08;72.72;100496.09;4920500;29;20079;-81
2021/08/15 03:30:24;;;;;;;13.25;5.10;;;;;;;18.06;72.62;100495.34;4922052;29;20464;-82
2021/08/15 03:32:51;;;;;;;8.18;4.35;;;;;;;18.01;72.94;100489.47;4917647;29;20560;-82
2021/08/15 03:35:18;;;;;;;9.43;5.00;;;;;;;18.01;73.15;100492.16;4920419;29;20056;-82
2021/08/15 03:37:45;;;;;;;8.43;5.18;;;;;;;18.04;73.11;100490.09;4928619;29;20049;-82
2021/08/15 03:40:12;;;;;;;8.43;4.63;;;;;;;18.09;72.67;100495.97;4917895;29;20436;-81
2021/08/15 03:42:39;;;;;;;10.52;5.40;;;;;;;18.05;72.31;100491.81;4906445;29;20111;-81
2021/08/15 03:45:08;;;;;;;10.90;4.90;;;;;;;17.95;72.79;100489.94;4918125;29;20049;-81
2021/08/15 03:47:35;;;;;;;10.95;5.05;;;;;;;17.85;73.23;100490.63;4922847;29;20062;-82
2021/08/15 03:50:06;;;;;;;7.63;4.72;;;;;;;17.84;73.78;100491.59;4921007;29;20052;-82
2021/08/15 03:52:41;;;;;;;9.18;4.88;;;;;;;17.84;73.61;100480.91;4929136;29;20108;-81
2021/08/15 03:55:11;;;;;;;8.85;5.20;;;;;;;17.79;73.65;100483.06;4912031;29;20062;-81
2021/08/15 03:57:39;;;;;;;9.73;5.50;;;;;;;17.78;74.15;100481.38;4918110;29;20514;-81
2021/08/15 04:00:06;;;;;;;11.80;5.07;;;;;;;17.81;73.93;100480.25;4921407;29;20058;-81
2021/08/15 04:02:34;;;;;;;9.65;5.20;;;;;;;17.79;73.85;100479.53;4916997;29;20559;-80
2021/08/15 04:05:01;;;;;;;9.32;5.07;;;;;;;17.75;74.19;100478.06;4918858;29;20066;-81
2021/08/15 04:07:28;;;;;;;7.80;5.13;;;;;;;17.72;74.67;100487.19;4917845;29;20058;-81
2021/08/15 04:09:54;;;;;;;7.45;5.03;;;;;;;17.73;74.47;100490.72;4907064;29;20052;-81
2021/08/15 04:12:21;;;;;;;8.77;5.50;;;;;;;17.69;74.44;100487.41;4930975;29;20115;-80
2021/08/15 04:14:48;;;;;;;10.55;5.07;;;;;;;17.60;75.51;100492.56;4930750;29;20044;-81
2021/08/15 04:17:16;;;;;;;8.50;5.38;;;;;;;17.47;75.66;100487.28;4932365;29;20044;-81
2021/08/15 04:19:46;;;;;;;7.28;4.88;;;;;;;17.33;76.35;100490.94;4931116;29;20092;-80
2021/08/15 04:22:13;;;;;;;12.38;5.25;;;;;;;17.26;76.65;100494.22;4937060;29;20075;-79
2021/08/15 04:24:39;;;;;;;9.32;5.18;;;;;;;17.17;77.09;100490.34;4936064;29;20060;-80
2021/08/15 04:27:06;;;;;;;10.57;5.78;;;;;;;17.19;77.55;100491.97;4924577;29;20112;-79
2021/08/15 04:29:35;;;;;;;11.43;5.00;;;;;;;17.29;77.35;100494.00;4934637;29;20086;-79
2021/08/15 04:32:03;;;;;;;8.48;5.03;;;;;;;17.34;76.98;100481.94;4941769;29;20130;-80
2021/08/15 04:34:29;;;;;;;8.27;5.05;;;;;;;17.41;76.22;100487.72;4908462;29;20056;-80
2021/08/15 04:36:56;;;;;;;9.30;4.90;;;;;;;17.45;76.09;100483.88;4920654;29;20052;-80
2021/08/15 04:39:23;;;;;;;8.23;4.90;;;;;;;17.45;75.47;100478.50;4917584;29;20055;-80
2021/08/15 04:41:52;;;;;;;8.52;4.93;;;;;;;17.48;75.57;100486.28;4917618;29;20252;-80
2021/08/15 04:44:18;;;;;;;9.90;4.60;;;;;;;17.47;75.39;100487.28;4916712;29;20076;-80
2021/08/15 04:46:46;;;;;;;12.27;5.00;;;;;;;17.40;75.68;100472.63;4899915;29;20481;-81
2021/08/15 04:49:12;;;;;;;7.55;4.88;;;;;;;17.44;75.91;100485.69;4919985;29;20115;-80
2021/08/15 04:51:39;;;;;;;8.52;4.60;;;;;;;17.43;75.49;100478.63;4917727;29;20135;-80
2021/08/15 04:54:06;;;;;;;9.15;5.07;;;;;;;17.27;76.41;100475.38;4917679;29;20052;-80
2021/08/15 04:56:34;;;;;;;10.50;5.35;;;;;;;17.17;77.08;100479.66;4916410;29;20473;-80
2021/08/15 04:59:01;;;;;;;9.60;4.65;;;;;;;17.05;77.67;100476.06;4919808;29;20052;-81
2021/08/15 05:01:28;;;;;;;8.27;4.95;;;;;;;17.00;78.14;100478.22;4915876;29;20171;-80
2021/08/15 05:03:55;;;;;;;7.45;4.95;;;;;;;17.05;78.53;100477.88;4916227;29;20047;-81
2021/08/15 05:06:48;;;;;;;10.30;5.10;;;;;;;17.16;77.92;100480.63;4913238;29;20115;-80
2021/08/15 05:09:14;;;;;;;9.98;4.88;;;;;;;17.24;77.78;100482.75;4915604;29;20482;-80
2021/08/15 05:11:41;;;;;;;11.98;5.13;;;;;;;17.31;76.96;100479.53;4916828;29;20472;-80
2021/08/15 05:14:10;;;;;;;9.43;5.13;;;;;;;17.32;76.39;100491.06;4915471;29;20116;-80
2021/08/15 05:16:37;;;;;;;9.32;4.90;;;;;;;17.34;76.96;100486.44;4915860;29;20556;-80
2021/08/15 05:19:03;;;;;;;8.82;5.30;;;;;;;17.41;76.79;100493.94;4915444;29;20054;-80
2021/08/15 05:21:30;;;;;;;8.35;4.88;;;;;;;17.45;76.20;100486.53;4914655;29;20208;-81
2021/08/15 05:23:58;;;;;;;7.85;5.10;;;;;;;17.44;76.27;100487.50;4914664;29;20048;-81
2021/08/15 05:26:25;;;;;;;9.20;5.22;;;;;;;17.44;76.22;100498.22;4921645;29;20693;-81
2021/08/15 05:28:52;;;;;;;8.52;5.20;;;;;;;17.42;76.72;100501.00;4916305;29;20050;-81
2021/08/15 05:31:19;;;;;;;8.18;5.07;;;;;;;17.44;76.62;100503.56;4901785;29;20533;-80
2021/08/15 05:33:47;;;;;;;10.90;5.10;;;;;;;17.46;75.92;100498.97;4920539;29;20045;-80
2021/08/15 05:36:14;;;;;;;7.20;4.20;;;;;;;17.54;76.01;100496.56;4915660;29;22436;-80
2021/08/15 05:38:41;;;;;;;9.25;4.72;;;;;;;17.66;76.27;100508.19;4919398;29;20066;-80
2021/08/15 05:41:08;;;;;;;10.80;5.00;;;;;;;17.77;75.47;100501.09;4915926;29;20055;-81
2021/08/15 05:43:34;;;;;;;9.52;5.00;;;;;;;17.87;74.83;100494.06;4921920;29;20075;-82
2021/08/15 05:46:01;;;;;;;8.27;5.10;;;;;;;17.95;73.77;100493.47;4912713;29;20084;-81
2021/08/15 05:48:28;;;;;;;12.38;4.70;;;;;;;18.01;74.39;100492.16;4916554;29;20048;-80
2021/08/15 05:50:55;;;;;;;8.80;5.07;;;;;;;18.04;73.48;100482.06;4899527;29;20044;-80
2021/08/15 05:53:21;;;;;;;15.00;5.50;;;;;;;18.11;73.12;100490.47;4916742;29;20080;-80
2021/08/15 05:55:51;;;;;;;9.48;5.10;;;;;;;18.20;73.29;100492.47;4916574;29;20059;-80
2021/08/15 05:58:18;;;;;;;8.45;4.82;;;;;;;18.30;73.22;100490.75;4919327;29;20053;-80
2021/08/15 06:00:48;;;;;;;9.93;5.45;;;;;;;18.40;73.10;100491.78;4899173;29;20055;-81
2021/08/15 06:03:14;;;;;;;8.77;5.07;;;;;;;18.48;72.81;100489.34;4916345;29;20063;-81
2021/08/15 06:05:41;;;;;;;12.73;5.38;;;;;;;18.54;72.90;100486.19;4912755;29;20184;-80
2021/08/15 06:08:08;;;;;;;12.52;5.00;;;;;;;18.63;72.06;100484.63;4914286;29;20411;-81
2021/08/15 06:10:37;;;;;;;11.95;5.30;;;;;;;18.75;71.47;100488.16;4916048;29;20052;-81
2021/08/15 06:13:03;;;;;;;11.77;4.80;;;;;;;18.87;71.00;100487.22;4916632;29;20047;-80
2021/08/15 06:15:30;;;;;;;9.60;4.68;;;;;;;18.99;70.78;100490.72;4913106;29;20044;-81
2021/08/15 06:17:58;;;;;;;8.07;4.45;;;;;;;19.13;70.63;100480.59;4912708;29;20053;-81
2021/08/15 06:20:28;;;;;;;13.40;4.53;;;;;;;19.31;69.41;100486.28;4916781;29;20052;-81
2021/08/15 06:22:55;;;;;;;10.88;4.88;;;;;;;19.48;68.97;100482.22;4914051;29;20059;-81
2021/08/15 06:25:22;;;;;;;9.45;4.68;;;;;;;19.71;67.82;100483.88;4918687;29;20048;-81
2021/08/15 06:27:49;;;;;;;9.75;4.80;;;;;;;20.06;66.40;100474.66;4917485;29;20058;-81
2021/08/15 06:30:18;;;;;;;8.43;4.32;;;;;;;20.54;64.68;100475.84;4913292;29;20123;-81
2021/08/15 06:32:46;;;;;;;13.65;5.20;;;;;;;21.00;62.06;100483.41;4914012;29;20079;-81
2021/08/15 06:35:22;;;;;;;10.75;4.70;;;;;;;21.43;60.93;100476.03;4922837;29;20056;-81
2021/08/15 06:37:50;;;;;;;7.07;4.55;;;;;;;21.77;58.91;100474.63;4922625;29;20066;-81
2021/08/15 06:40:17;;;;;;;9.02;4.28;;;;;;;22.04;58.63;100474.78;4938777;29;20112;-80
2021/08/15 06:42:44;;;;;;;9.45;4.25;;;;;;;22.27;57.72;100463.69;4934578;29;20100;-80
2021/08/15 06:45:11;;;;;;;11.60;4.72;;;;;;;22.43;56.53;100457.69;4933483;29;20108;-79
2021/08/15 06:47:38;;;;;;;8.82;4.75;;;;;;;22.49;57.07;100467.91;4938785;29;20078;-80
2021/08/15 06:50:07;;;;;;;11.77;4.53;;;;;;;22.69;55.76;100461.44;4927075;29;20450;-81
2021/08/15 06:52:34;;;;;;;10.10;4.60;;;;;;;22.92;55.32;100456.53;4924395;29;20048;-81
2021/08/15 06:55:01;;;;;;;7.25;4.78;;;;;;;23.13;54.83;100461.72;4922120;29;20138;-81
2021/08/15 06:57:28;;;;;;;11.20;5.07;;;;;;;23.32;53.97;100459.72;4922098;29;20056;-81
2021/08/15 06:59:55;;;;;;;10.02;4.80;;;;;;;23.42;53.77;100455.13;4925697;29;20049;-80
2021/08/15 07:02:21;;;;;;;11.38;4.47;;;;;;;23.52;53.37;100454.22;4927628;29;20058;-81
2021/08/15 07:04:49;;;;;;;9.15;4.25;;;;;;;23.63;53.06;100453.97;4929990;29;20408;-81
2021/08/15 07:07:16;;;;;;;8.95;4.68;;;;;;;23.82;51.85;100455.66;4919186;29;20048;-80
2021/08/15 07:09:43;;;;;;;8.77;4.70;;;;;;;23.86;51.91;100451.66;4924160;29;20087;-81
2021/08/15 07:12:09;;;;;;;8.32;4.68;;;;;;;23.89;52.02;100446.78;4932471;29;20120;-81
2021/08/15 07:14:41;;;;;;;9.73;4.70;;;;;;;24.12;52.60;100441.72;4941261;29;20067;-80
2021/08/15 07:17:08;;;;;;;9.48;4.60;;;;;;;24.49;51.24;100455.03;4931686;29;20052;-79
2021/08/15 07:19:35;;;;;;;8.50;4.28;;;;;;;24.51;50.61;100463.84;4935469;29;20052;-80
2021/08/15 07:22:02;;;;;;;8.88;4.50;;;;;;;24.44;50.99;100454.66;4920205;29;20044;-81
2021/08/15 07:24:30;;;;;;;9.77;4.88;;;;;;;24.31;51.13;100463.19;4923922;29;20112;-80
2021/08/15 07:26:57;;;;;;;7.63;4.30;;;;;;;24.19;51.96;100452.78;4904577;29;20055;-80
2021/08/15 07:29:25;;;;;;;11.70;4.88;;;;;;;24.09;52.02;100451.00;4917773;29;20056;-82
2021/08/15 07:31:53;;;;;;;11.20;5.10;;;;;;;24.24;51.66;100450.47;4916340;29;20048;-81
2021/08/15 07:34:20;;;;;;;8.07;4.38;;;;;;;24.37;51.44;100456.31;4923672;29;20056;-81
2021/08/15 07:36:47;;;;;;;9.30;4.57;;;;;;;24.57;51.52;100446.94;4924940;29;20056;-82
2021/08/15 07:39:14;;;;;;;10.25;4.88;;;;;;;24.62;49.99;100450.03;4924281;29;20144;-81
2021/08/15 07:41:41;;;;;;;10.93;4.93;;;;;;;24.58;50.42;100443.22;4916894;29;20473;-81
2021/08/15 07:44:08;;;;;;;8.95;4.63;;;;;;;24.56;51.06;100453.38;4918385;29;20058;-81
2021/08/15 07:46:35;;;;;;;8.15;3.95;;;;;;;24.89;51.58;100448.13;4921461;29;20044;-81
2021/08/15 07:49:08;;;;;;;9.82;4.55;;;;;;;25.15;49.22;100443.53;4918526;29;20116;-81
2021/08/15 07:51:35;;;;;;;9.63;4.88;;;;;;;25.12;49.34;100433.84;4924255;29;20050;-82
2021/08/15 07:54:01;;;;;;;9.02;4.28;;;;;;;25.10;48.68;100438.59;4913568;29;20053;-82
2021/08/15 07:56:28;;;;;;;9.40;4.72;;;;;;;25.01;49.88;100439.59;4919491;29;20056;-81
2021/08/15 07:58:54;;;;;;;11.98;4.32;;;;;;;25.07;49.08;100438.06;4918802;29;20494;-82
2021/08/15 08:01:21;;;;;;;11.85;4.43;;;;;;;25.15;49.47;100436.25;4920252;29;20044;-82
2021/08/15 08:03:48;;;;;;;10.38;4.82;;;;;;;25.18;49.11;100432.38;4901614;29;20056;-82
2021/08/15 08:06:15;;;;;;;8.40;4.40;;;;;;;25.14;48.52;100431.84;4923829;29;20083;-82
2021/08/15 08:08:42;;;;;;;8.63;3.97;;;;;;;25.21;48.17;100433.88;4908975;29;20048;-81
2021/08/15 08:11:08;;;;;;;11.38;5.30;;;;;;;25.22;47.72;100425.56;4931175;29;20068;-81
2021/08/15 08:13:36;;;;;;;11.50;4.65;;;;;;;25.21;48.74;100431.16;4928715;29;20154;-82
2021/08/15 08:16:03;;;;;;;8.70;4.80;;;;;;;25.18;47.83;100424.22;4917680;29;20056;-81
2021/08/15 08:18:31;;;;;;;9.30;4.80;;;;;;;25.01;48.29;100417.06;4916310;29;20052;-82
2021/08/15 08:20:58;;;;;;;8.15;4.57;;;;;;;24.92;48.82;100415.28;4930269;29;20063;-82
2021/08/15 08:23:25;;;;;;;9.88;4.65;;;;;;;24.92;49.35;100408.00;4934245;29;20028;-81
2021/08/15 08:25:51;;;;;;;7.97;4.53;;;;;;;24.94;48.92;100407.88;4932926;29;20108;-83
2021/08/15 08:28:18;;;;;;;6.38;4.60;;;;;;;25.02;49.40;100405.22;4935549;29;20055;-83
2021/08/15 08:30:45;;;;;;;6.85;4.28;;;;;;;25.08;48.98;100405.38;4934387;29;20048;-84
2021/08/15 08:33:11;;;;;;;10.50;4.50;;;;;;;25.05;49.08;100403.00;4924414;29;20485;-82
2021/08/15 08:35:38;;;;;;;8.80;3.90;;;;;;;25.18;47.56;100397.13;4921882;29;20618;-81
2021/08/15 08:38:06;;;;;;;7.22;3.42;;;;;;;25.25;48.33;100397.28;4919169;29;20076;-84
2021/08/15 08:40:33;;;;;;;8.23;3.83;;;;;;;25.32;46.87;100385.63;4908019;29;20291;-82
2021/08/15 08:43:00;;;;;;;9.10;3.70;;;;;;;25.44;46.62;100387.00;4921456;29;20696;-83
2021/08/15 08:45:29;;;;;;;9.95;4.32;;;;;;;25.43;46.81;100376.31;4922000;29;20072;-81
2021/08/15 08:47:55;;;;;;;11.25;3.85;;;;;;;25.44;47.53;100387.00;4921090;29;20040;-85
2021/08/15 08:50:23;;;;;;;8.63;4.13;;;;;;;25.63;47.24;100382.31;4906114;29;20120;-83
2021/08/15 08:52:51;;;;;;;7.10;3.70;;;;;;;25.76;45.72;100375.34;4922689;29;20052;-83
2021/08/15 08:55:18;;;;;;;6.43;3.13;;;;;;;25.73;44.68;100380.25;4925950;29;20036;-82
2021/08/15 08:57:46;;;;;;;7.45;3.80;;;;;;;25.67;44.96;100381.78;4926185;29;20800;-82
2021/08/15 09:00:15;;;;;;;9.02;3.25;;;;;;;25.67;44.56;100370.06;4926463;29;20051;-82
2021/08/15 09:02:42;;;;;;;5.15;2.80;;;;;;;25.68;45.30;100371.78;4924692;29;20052;-85
2021/08/15 09:05:10;;;;;;;5.38;3.08;;;;;;;25.75;46.94;100365.50;4917767;29;20064;-86
2021/08/15 09:07:40;;;;;;;4.78;2.60;;;;;;;25.80;43.58;100373.16;4917759;29;20052;-86
2021/08/15 09:10:13;;;;;;;6.97;3.33;;;;;;;25.76;44.25;100377.22;4920745;29;20389;-86
2021/08/15 09:12:50;;;;;;;6.15;3.13;;;;;;;25.66;45.42;100371.94;4918437;29;20094;-84
2021/08/15 09:15:18;;;;;;;6.45;3.00;;;;;;;25.63;44.69;100374.16;4920149;29;20104;-86
2021/08/15 09:17:48;;;;;;;5.53;3.28;;;;;;;25.60;44.57;100363.63;4926450;29;20055;-86
2021/08/15 09:20:45;;;;;;;6.93;3.28;;;;;;;25.52;44.22;100362.59;4922817;29;20072;-84
2021/08/15 09:23:22;;;;;;;7.07;3.20;;;;;;;25.54;44.68;100367.84;4922337;29;20831;-85
2021/08/15 09:26:09;;;;;;;5.95;3.08;;;;;;;25.48;45.24;100369.38;4921723;29;20107;-86
2021/08/15 09:28:36;;;;;;;5.57;3.13;;;;;;;25.46;43.43;100357.88;4902051;29;20048;-81
2021/08/15 09:31:23;;;;;;;5.20;2.97;;;;;;;25.46;43.81;100352.44;4916223;29;20056;-82
2021/08/15 09:33:55;;;;;;;8.13;2.78;;;;;;;25.52;44.42;100348.19;4926977;29;20044;-83
2021/08/15 09:36:29;;;;;;;5.88;3.15;;;;;;;25.63;44.43;100347.06;4927364;29;20171;-83
2021/08/15 09:38:59;;;;;;;5.65;3.22;;;;;;;25.67;44.46;100341.09;4923386;29;20079;-83
2021/08/15 09:41:35;;;;;;;5.22;2.80;;;;;;;25.79;44.94;100341.63;4931147;29;20090;-81
2021/08/15 09:44:29;;;;;;;7.50;3.10;;;;;;;25.91;44.16;100340.22;4930668;29;20546;-85
2021/08/15 09:47:04;;;;;;;4.93;3.25;;;;;;;25.94;43.26;100345.31;4927948;29;20056;-80
2021/08/15 09:49:42;;;;;;;4.50;2.80;;;;;;;25.98;42.94;100345.78;4925688;29;20055;-85
2021/08/15 09:52:14;;;;;;;5.30;2.72;;;;;;;26.04;42.95;100351.41;4927998;29;20080;-82
2021/08/15 09:54:55;;;;;;;4.82;2.97;;;;;;;26.10;41.97;100350.72;4930010;29;20068;-82
2021/08/15 09:57:33;;;;;;;4.32;2.85;;;;;;;26.12;42.77;100347.84;4932142;29;20070;-84
2021/08/15 10:00:00;;;;;;;5.72;3.00;;;;;;;26.18;42.51;100342.53;4917323;29;20489;-82
2021/08/15 10:02:27;;;;;;;5.13;3.05;;;;;;;26.27;42.23;100345.25;4920510;29;20058;-82
2021/08/15 10:04:55;;;;;;;3.55;2.28;;;;;;;26.32;41.15;100335.56;4920894;29;20056;-81
2021/08/15 10:07:24;;;;;;;3.63;2.28;;;;;;;26.37;39.79;100343.19;4919857;29;20069;-83
2021/08/15 10:09:51;;;;;;;4.68;2.30;;;;;;;26.34;39.55;100324.53;4922581;29;20051;-83
2021/08/15 10:12:18;;;;;;;3.70;1.83;;;;;;;26.33;39.15;100320.97;4923712;29;20154;-80
2021/08/15 10:14:44;;;;;;;6.47;1.80;;;;;;;26.34;39.45;100324.53;4913092;29;20063;-81
2021/08/15 10:17:15;;;;;;;4.97;2.10;;;;;;;26.39;40.10;100316.72;4922911;29;20055;-79
2021/08/15 10:20:02;;;;;;;;;;;;;;;26.44;39.11;100320.63;4922238;29;20076;-78
2021/08/15 10:22:34;;;;;;;3.60;2.25;;;;;;;26.44;39.31;100320.63;4924870;29;19941;-78
2021/08/15 10:25:05;;;;;;;3.63;2.20;;;;;;;26.45;37.34;100316.00;4931763;29;20111;-79
2021/08/15 10:27:40;;;;;;;3.03;2.00;;;;;;;26.37;37.52;100313.34;4930157;29;20056;-78
2021/08/15 10:30:18;;;;;;;3.63;2.03;;;;;;;26.45;38.98;100316.00;4916813;29;20103;-79
2021/08/15 10:33:15;;;;;;;3.33;2.17;;;;;;;26.56;39.18;100307.47;4898411;29;20869;-78
2021/08/15 10:35:41;;;;;;;4.25;2.10;;;;;;;26.64;38.80;100291.13;4907854;29;20127;-79
2021/08/15 10:38:30;;;;;;;5.20;2.22;;;;;;;26.78;39.32;100298.50;4917130;29;20052;-80
2021/08/15 10:40:57;;;;;;;5.07;2.10;;;;;;;26.87;38.62;100296.63;4914710;29;20518;-80
2021/08/15 10:43:23;;;;;;;2.40;1.60;;;;;;;26.89;37.85;100291.84;4911992;29;20052;-79
2021/08/15 10:46:13;;;;;;;4.25;1.83;;;;;;;26.90;37.91;100288.97;4921833;29;20440;-78
2021/08/15 10:49:07;;;;;;;3.33;1.85;;;;;;;26.98;39.78;100290.78;4916079;29;20420;-81
2021/08/15 10:51:51;;;;;;;3.05;1.92;;;;;;;27.06;37.49;100295.34;4916712;29;20180;-79
2021/08/15 10:54:27;;;;;;;3.83;2.10;;;;;;;27.15;37.35;100280.66;4913525;29;20138;-79
2021/08/15 10:56:57;;;;;;;3.53;1.85;;;;;;;27.23;38.19;100281.41;4914403;29;20579;-78
2021/08/15 10:59:29;;;;;;;2.20;2.00;;;;;;;27.22;36.96;100281.63;4926029;29;20484;-80
2021/08/15 11:02:10;;;;;;;2.55;2.03;;;;;;;27.25;36.98;100279.34;4918119;29;20067;-80
2021/08/15 11:04:38;;;;;;;2.55;1.90;;;;;;;27.28;37.02;100274.59;4918069;29;20091;-82
2021/08/15 11:07:06;;;;;;;3.10;1.95;;;;;;;27.17;36.47;100273.16;4900034;29;20085;-81
2021/08/15 11:10:09;;;;;;;3.13;1.88;;;;;;;27.22;36.71;100266.16;4917986;29;20055;-80
2021/08/15 11:13:17;;;;;;;2.63;1.83;;;;;;;27.41;37.68;100264.78;4875426;29;20056;-81
2021/08/15 11:15:43;;;;;;;3.20;2.03;;;;;;;27.46;37.89;100256.06;4923338;29;20047;-81
2021/08/15 11:18:15;;;;;;;3.85;2.17;;;;;;;27.55;37.94;100261.25;4923816;29;20055;-80
2021/08/15 11:20:49;;;;;;;3.50;1.90;;;;;;;27.66;38.20;100251.84;4909102;29;20053;-79
2021/08/15 11:23:18;;;;;;;3.00;1.90;;;;;;;27.76;37.89;100251.56;4928701;29;20543;-79
2021/08/15 11:25:47;;;;;;;4.13;2.13;;;;;;;27.82;37.75;100250.81;4925613;29;20048;-80
2021/08/15 11:28:16;;;;;;;4.03;2.13;;;;;;;27.88;37.38;100240.00;4927625;29;20067;-82
2021/08/15 11:30:44;;;;;;;3.88;2.03;;;;;;;27.99;36.90;100233.28;4930680;29;20063;-80
2021/08/15 11:33:13;;;;;;;2.55;1.80;;;;;;;28.05;35.88;100235.22;4932813;29;20108;-82